createdAt,value
2022-10-03T00:00:02.497Z,0.68
2022-10-03T00:02:52.256Z,0.60
2022-10-03T00:05:42.020Z,0.50
2022-10-03T00:08:27.043Z,0.60
2022-10-03T00:11:23.340Z,0.60
2022-10-03T00:13:57.217Z,0.50
2022-10-03T00:16:39.539Z,0.57
2022-10-03T00:19:31.112Z,0.60
2022-10-03T00:22:04.507Z,0.60
2022-10-03T00:24:44.666Z,0.57
2022-10-03T00:27:38.113Z,0.70
2022-10-03T00:30:10.447Z,0.40
2022-10-03T00:33:11.272Z,0.73
2022-10-03T00:35:40.710Z,0.50
2022-10-03T00:38:07.027Z,0.70
2022-10-03T00:41:00.185Z,0.40
2022-10-03T00:43:37.581Z,0.70
2022-10-03T00:46:39.171Z,0.40
2022-10-03T00:49:37.156Z,0.47
2022-10-03T00:52:21.384Z,0.50
2022-10-03T00:55:12.327Z,0.60
2022-10-03T00:57:50.674Z,0.40
2022-10-03T01:00:27.686Z,0.30
2022-10-03T01:03:13.668Z,0.50
2022-10-03T01:06:12.576Z,0.60
2022-10-03T01:09:07.010Z,0.82
2022-10-03T01:11:54.956Z,0.30
2022-10-03T01:14:28.156Z,0.50
2022-10-03T01:17:27.965Z,0.40
2022-10-03T01:20:18.623Z,0.30
2022-10-03T01:23:22.571Z,0.40
2022-10-03T01:25:58.237Z,0.30
2022-10-03T01:29:12.514Z,0.30
2022-10-03T01:32:12.664Z,0.30
2022-10-03T01:34:54.134Z,0.50
2022-10-03T01:37:30.868Z,0.20
2022-10-03T01:40:13.696Z,0.35
2022-10-03T01:43:06.588Z,0.40
2022-10-03T01:45:47.544Z,0.47
2022-10-03T01:48:50.140Z,0.27
2022-10-03T01:51:23.066Z,0.30
2022-10-03T01:54:16.354Z,0.40
2022-10-03T01:57:06.458Z,0.60
2022-10-03T01:59:53.332Z,0.70
2022-10-03T02:02:30.911Z,0.40
2022-10-03T02:05:22.764Z,0.40
2022-10-03T02:08:05.715Z,0.30
2022-10-03T02:10:40.792Z,0.40
2022-10-03T02:13:24.132Z,0.38
2022-10-03T02:16:02.091Z,0.30
2022-10-03T02:18:56.975Z,0.28
2022-10-03T02:21:29.883Z,0.40
2022-10-03T02:24:14.863Z,0.35
2022-10-03T02:27:02.843Z,0.30
2022-10-03T02:30:02.298Z,0.20
2022-10-03T02:32:34.947Z,0.30
2022-10-03T02:35:07.802Z,0.70
2022-10-03T02:38:06.459Z,0.40
2022-10-03T02:40:48.219Z,0.50
2022-10-03T02:43:53.714Z,0.40
2022-10-03T02:46:34.806Z,0.35
2022-10-03T02:49:19.459Z,0.38
2022-10-03T02:52:13.945Z,0.20
2022-10-03T02:54:59.093Z,0.35
2022-10-03T02:57:28.372Z,0.30
2022-10-03T03:00:13.891Z,0.30
2022-10-03T03:03:10.411Z,0.40
2022-10-03T03:05:56.068Z,0.30
2022-10-03T03:08:40.918Z,0.30
2022-10-03T03:11:47.564Z,0.20
2022-10-03T03:14:31.588Z,0.40
2022-10-03T03:17:06.443Z,0.43
2022-10-03T03:19:42.614Z,0.40
2022-10-03T03:22:28.246Z,0.30
2022-10-03T03:25:22.766Z,0.27
2022-10-03T03:28:07.364Z,0.30
2022-10-03T03:31:01.389Z,0.40
2022-10-03T03:33:37.068Z,1.00
2022-10-03T03:36:33.989Z,0.30
2022-10-03T03:39:13.778Z,0.20
2022-10-03T03:41:56.844Z,0.30
2022-10-03T03:44:46.759Z,0.25
2022-10-03T03:47:34.698Z,0.20
2022-10-03T03:50:24.893Z,0.30
2022-10-03T03:53:09.394Z,0.20
2022-10-03T03:55:54.879Z,0.22
2022-10-03T03:58:57.557Z,0.30
2022-10-03T04:01:31.489Z,0.20
2022-10-03T04:04:12.435Z,0.20
2022-10-03T04:07:26.615Z,0.23
2022-10-03T04:10:12.125Z,0.30
2022-10-03T04:13:09.883Z,0.20
2022-10-03T04:15:51.086Z,0.20
2022-10-03T04:18:58.572Z,0.60
2022-10-03T04:21:51.974Z,0.20
2022-10-03T04:24:49.416Z,0.32
2022-10-03T04:27:29.674Z,0.20
2022-10-03T04:30:05.907Z,0.30
2022-10-03T04:32:58.708Z,0.30
2022-10-03T04:36:06.372Z,0.30
2022-10-03T04:38:45.968Z,0.20
2022-10-03T04:41:27.610Z,0.20
2022-10-03T04:44:15.487Z,0.20
2022-10-03T04:46:50.859Z,0.32
2022-10-03T04:49:35.507Z,0.20
2022-10-03T04:52:14.468Z,0.30
2022-10-03T04:54:52.704Z,0.30
2022-10-03T04:57:37.250Z,0.20
2022-10-03T05:00:25.248Z,0.20
2022-10-03T05:03:02.586Z,0.20
2022-10-03T05:05:40.098Z,0.20
2022-10-03T05:08:17.266Z,0.20
2022-10-03T05:11:05.759Z,0.22
2022-10-03T05:14:00.061Z,0.20
2022-10-03T05:16:36.203Z,0.30
2022-10-03T05:19:36.352Z,0.20
2022-10-03T05:22:12.421Z,0.40
2022-10-03T05:24:45.087Z,0.28
2022-10-03T05:27:26.056Z,0.15
2022-10-03T05:30:18.839Z,0.20
2022-10-03T05:32:50.852Z,0.20
2022-10-03T05:35:35.155Z,0.20
2022-10-03T05:38:16.531Z,0.30
2022-10-03T05:41:16.819Z,0.20
2022-10-03T05:44:08.428Z,0.20
2022-10-03T05:47:05.134Z,0.30
2022-10-03T05:50:13.311Z,0.35
2022-10-03T05:52:44.975Z,0.30
2022-10-03T05:55:36.766Z,0.20
2022-10-03T05:58:22.148Z,0.23
2022-10-03T06:01:11.150Z,0.70
2022-10-03T06:03:56.579Z,0.30
2022-10-03T06:06:50.236Z,0.30
2022-10-03T06:09:41.346Z,0.20
2022-10-03T06:12:24.752Z,0.73
2022-10-03T06:15:06.201Z,0.30
2022-10-03T06:17:47.744Z,0.40
2022-10-03T06:20:51.727Z,0.20
2022-10-03T06:23:17.972Z,0.68
2022-10-03T06:26:15.368Z,0.20
2022-10-03T06:28:53.904Z,0.20
2022-10-03T06:31:58.598Z,0.30
2022-10-03T06:34:24.988Z,0.30
2022-10-03T06:37:11.197Z,0.40
2022-10-03T06:40:19.368Z,0.20
2022-10-03T06:43:01.621Z,0.20
2022-10-03T06:45:56.679Z,1.15
2022-10-03T06:48:33.962Z,0.25
2022-10-03T06:51:47.194Z,0.40
2022-10-03T06:54:22.307Z,0.30
2022-10-03T06:57:18.467Z,0.38
2022-10-03T06:59:51.905Z,0.40
2022-10-03T07:02:40.829Z,0.30
2022-10-03T07:05:38.623Z,0.30
2022-10-03T07:08:18.950Z,0.30
2022-10-03T07:11:26.649Z,0.47
2022-10-03T07:14:29.671Z,0.30
2022-10-03T07:17:28.407Z,0.38
2022-10-03T07:20:19.825Z,0.40
2022-10-03T07:23:14.491Z,0.40
2022-10-03T07:26:14.795Z,0.30
2022-10-03T07:29:06.959Z,0.60
2022-10-03T07:32:02.820Z,0.40
2022-10-03T07:34:56.412Z,0.40
2022-10-03T07:37:59.436Z,0.40
2022-10-03T07:41:09.716Z,0.50
2022-10-03T07:44:00.155Z,0.30
2022-10-03T07:46:51.780Z,0.80
2022-10-03T07:49:26.691Z,0.50
2022-10-03T07:52:29.499Z,0.50
2022-10-03T07:55:33.962Z,1.10
2022-10-03T07:58:42.955Z,0.30
2022-10-03T08:01:37.502Z,0.50
2022-10-03T08:04:35.631Z,0.35
2022-10-03T08:07:12.086Z,0.33
2022-10-03T08:09:57.436Z,0.30
2022-10-03T08:12:29.556Z,0.40
2022-10-03T08:15:10.438Z,0.40
2022-10-03T08:18:20.984Z,1.75
2022-10-03T08:20:47.280Z,0.30
2022-10-03T08:23:45.148Z,0.75
2022-10-03T08:26:17.222Z,0.40
2022-10-03T08:29:03.078Z,0.32
2022-10-03T08:31:44.472Z,0.30
2022-10-03T08:34:43.899Z,0.80
2022-10-03T08:37:37.000Z,0.30
2022-10-03T08:40:11.016Z,0.30
2022-10-03T08:43:17.187Z,0.40
2022-10-03T08:45:51.638Z,0.20
2022-10-03T08:48:40.501Z,0.40
2022-10-03T08:51:42.130Z,0.35
2022-10-03T08:54:22.770Z,0.77
2022-10-03T08:57:17.650Z,0.88
2022-10-03T09:00:05.212Z,0.50
2022-10-03T09:03:20.111Z,0.53
2022-10-03T09:06:09.275Z,0.28
2022-10-03T09:08:48.551Z,0.68
2022-10-03T09:11:54.771Z,0.40
2022-10-03T09:14:49.479Z,0.43
2022-10-03T09:17:18.874Z,0.47
2022-10-03T09:20:16.104Z,0.47
2022-10-03T09:23:32.356Z,0.40
2022-10-03T09:26:20.815Z,0.40
2022-10-03T09:29:08.983Z,0.40
2022-10-03T09:32:12.512Z,0.33
2022-10-03T09:34:57.176Z,0.60
2022-10-03T09:38:01.299Z,0.40
2022-10-03T09:40:59.972Z,0.57
2022-10-03T09:43:48.124Z,0.35
2022-10-03T09:47:06.796Z,0.30
2022-10-03T09:49:51.834Z,0.30
2022-10-03T09:52:53.674Z,0.38
2022-10-03T09:55:45.938Z,0.57
2022-10-03T09:58:27.504Z,0.50
2022-10-03T10:01:09.995Z,0.30
2022-10-03T10:04:14.278Z,0.50
2022-10-03T10:07:34.795Z,0.50
2022-10-03T10:10:20.133Z,0.98
2022-10-03T10:13:20.292Z,0.68
2022-10-03T10:16:01.777Z,0.60
2022-10-03T10:18:50.522Z,0.50
2022-10-03T10:21:34.900Z,0.50
2022-10-03T10:24:23.179Z,0.57
2022-10-03T10:27:09.413Z,0.80
2022-10-03T10:29:43.537Z,0.47
2022-10-03T10:32:59.120Z,0.60
2022-10-03T10:35:25.439Z,0.50
2022-10-03T10:38:04.709Z,0.40
2022-10-03T10:41:06.240Z,0.50
2022-10-03T10:43:51.363Z,0.83
2022-10-03T10:46:50.766Z,0.47
2022-10-03T10:49:39.229Z,0.40
2022-10-03T10:52:15.538Z,0.40
2022-10-03T10:55:03.318Z,0.57
2022-10-03T10:58:05.759Z,0.30
2022-10-03T11:01:14.317Z,0.40
2022-10-03T11:04:18.965Z,0.40
2022-10-03T11:07:16.210Z,0.50
2022-10-03T11:09:49.719Z,0.80
2022-10-03T11:12:34.804Z,0.67
2022-10-03T11:15:19.620Z,0.40
2022-10-03T11:18:17.247Z,0.40
2022-10-03T11:21:09.814Z,0.50
2022-10-03T11:23:54.284Z,0.55
2022-10-03T11:26:23.505Z,0.47
2022-10-03T11:29:14.227Z,1.02
2022-10-03T11:32:02.795Z,0.60
2022-10-03T11:34:50.813Z,0.57
2022-10-03T11:37:32.931Z,0.40
2022-10-03T11:40:24.493Z,0.30
2022-10-03T11:42:58.519Z,0.45
2022-10-03T11:45:34.705Z,0.50
2022-10-03T11:48:22.936Z,0.57
2022-10-03T11:50:57.538Z,0.60
2022-10-03T11:53:39.684Z,0.40
2022-10-03T11:56:28.982Z,0.55
2022-10-03T11:59:01.412Z,0.30
2022-10-03T12:01:50.841Z,0.47
2022-10-03T12:04:40.863Z,0.60
2022-10-03T12:07:58.854Z,0.33
2022-10-03T12:11:07.000Z,0.50
2022-10-03T12:13:48.521Z,0.40
2022-10-03T12:16:30.182Z,0.40
2022-10-03T12:19:08.193Z,0.50
2022-10-03T12:21:57.002Z,0.37
2022-10-03T12:24:29.599Z,0.50
2022-10-03T12:27:07.172Z,0.73
2022-10-03T12:29:37.936Z,0.30
2022-10-03T12:32:14.233Z,0.40
2022-10-03T12:34:49.896Z,0.40
2022-10-03T12:37:35.631Z,0.40
2022-10-03T12:40:12.245Z,0.40
2022-10-03T12:42:53.787Z,0.40
2022-10-03T12:45:27.500Z,0.40
2022-10-03T12:48:24.680Z,0.37
2022-10-03T12:51:17.348Z,0.40
2022-10-03T12:53:52.244Z,0.77
2022-10-03T12:56:50.228Z,0.20
2022-10-03T12:59:35.891Z,0.47
2022-10-03T13:02:29.796Z,0.40
2022-10-03T13:05:14.690Z,0.30
2022-10-03T13:07:54.602Z,0.30
2022-10-03T13:10:43.462Z,0.30
2022-10-03T13:13:33.589Z,0.38
2022-10-03T13:16:05.906Z,0.33
2022-10-03T13:18:41.279Z,0.30
2022-10-03T13:21:44.334Z,0.50
2022-10-03T13:24:16.566Z,0.40
2022-10-03T13:26:58.334Z,0.52
2022-10-03T13:29:30.005Z,0.40
2022-10-03T13:32:27.349Z,0.43
2022-10-03T13:35:31.555Z,0.65
2022-10-03T13:38:17.037Z,0.40
2022-10-03T13:40:54.803Z,0.30
2022-10-03T13:43:29.022Z,0.33
2022-10-03T13:45:56.957Z,0.28
2022-10-03T13:48:27.463Z,0.70
2022-10-03T13:51:06.011Z,0.30
2022-10-03T13:53:56.804Z,0.40
2022-10-03T13:56:38.624Z,1.07
2022-10-03T13:59:11.008Z,0.30
2022-10-03T14:02:08.279Z,0.40
2022-10-03T14:05:04.074Z,0.60
2022-10-03T14:07:46.744Z,0.30
2022-10-03T14:10:29.888Z,0.30
2022-10-03T14:13:33.718Z,0.30
2022-10-03T14:16:27.598Z,0.30
2022-10-03T14:18:59.631Z,0.30
2022-10-03T14:21:47.654Z,0.55
2022-10-03T14:24:20.353Z,0.43
2022-10-03T14:27:18.948Z,0.30
2022-10-03T14:30:11.115Z,0.90
2022-10-03T14:32:59.625Z,0.25
2022-10-03T14:35:44.123Z,0.47
2022-10-03T14:38:50.128Z,0.60
2022-10-03T14:41:25.792Z,0.90
2022-10-03T14:43:56.288Z,0.40
2022-10-03T14:46:26.906Z,0.70
2022-10-03T14:48:59.282Z,0.30
2022-10-03T14:51:31.394Z,0.40
2022-10-03T14:54:05.208Z,0.38
2022-10-03T14:56:41.296Z,0.28
2022-10-03T14:59:20.318Z,0.20
2022-10-03T15:01:49.779Z,0.38
2022-10-03T15:04:39.118Z,0.30
2022-10-03T15:07:07.617Z,0.40
2022-10-03T15:09:40.044Z,0.30
2022-10-03T15:12:12.788Z,0.30
2022-10-03T15:14:47.937Z,0.40
2022-10-03T15:17:19.968Z,0.20
2022-10-03T15:19:51.227Z,0.30
2022-10-03T15:22:20.523Z,0.30
2022-10-03T15:24:47.640Z,0.40
2022-10-03T15:27:20.900Z,0.50
2022-10-03T15:29:53.471Z,0.30
2022-10-03T15:32:27.417Z,0.30
2022-10-03T15:35:00.527Z,0.40
2022-10-03T15:37:35.192Z,0.63
2022-10-03T15:40:07.116Z,0.30
2022-10-03T15:42:45.779Z,0.20
2022-10-03T15:45:21.685Z,0.30
2022-10-03T15:47:50.043Z,0.30
2022-10-03T15:50:25.176Z,0.40
2022-10-03T15:52:54.711Z,0.47
2022-10-03T15:55:34.418Z,0.30
2022-10-03T15:58:11.047Z,0.40
2022-10-03T16:00:37.801Z,0.40
2022-10-03T16:03:16.727Z,0.40
2022-10-03T16:06:00.244Z,0.47
2022-10-03T16:08:30.993Z,0.97
2022-10-03T16:11:09.073Z,1.08
2022-10-03T16:13:58.651Z,2.55
2022-10-03T16:16:54.077Z,2.60
2022-10-03T16:19:29.180Z,2.83
2022-10-03T16:22:19.481Z,3.10
2022-10-03T16:24:49.986Z,2.60
2022-10-03T16:27:25.376Z,2.60
2022-10-03T16:30:10.011Z,2.10
2022-10-03T16:32:44.885Z,1.80
2022-10-03T16:35:29.328Z,1.43
2022-10-03T16:37:56.075Z,1.50
2022-10-03T16:40:24.284Z,1.75
2022-10-03T16:42:55.753Z,0.90
2022-10-03T16:45:28.235Z,1.10
2022-10-03T16:48:15.898Z,1.00
2022-10-03T16:50:51.947Z,1.10
2022-10-03T16:53:20.891Z,1.20
2022-10-03T16:56:00.449Z,1.17
2022-10-03T16:58:33.729Z,1.58
2022-10-03T17:01:25.867Z,0.90
2022-10-03T17:03:59.741Z,2.30
2022-10-03T17:06:31.387Z,0.93
2022-10-03T17:09:04.045Z,0.75
2022-10-03T17:11:34.388Z,1.40
2022-10-03T17:14:06.115Z,0.93
2022-10-03T17:16:44.820Z,1.30
2022-10-03T17:19:18.003Z,0.80
2022-10-03T17:21:54.603Z,0.93
2022-10-03T17:24:46.415Z,0.98
2022-10-03T17:27:23.008Z,0.87
2022-10-03T17:30:07.209Z,1.25
2022-10-03T17:32:40.568Z,1.27
2022-10-03T17:35:56.097Z,1.20
2022-10-03T17:38:50.045Z,1.00
2022-10-03T17:41:21.386Z,0.90
2022-10-03T17:43:56.115Z,0.70
2022-10-03T17:46:34.332Z,1.15
2022-10-03T17:49:12.479Z,0.90
2022-10-03T17:51:43.308Z,1.50
2022-10-03T17:54:17.954Z,1.13
2022-10-03T17:57:01.209Z,1.20
2022-10-03T17:59:42.511Z,1.63
2022-10-03T18:02:21.381Z,1.20
2022-10-03T18:04:55.735Z,1.30
2022-10-03T18:07:26.897Z,0.67
2022-10-03T18:09:55.532Z,0.70
2022-10-03T18:12:38.049Z,1.42
2022-10-03T18:15:10.644Z,1.05
2022-10-03T18:18:17.680Z,0.80
2022-10-03T18:21:10.561Z,1.13
2022-10-03T18:24:09.468Z,0.70
2022-10-03T18:26:43.144Z,1.52
2022-10-03T18:29:18.635Z,1.38
2022-10-03T18:32:06.141Z,0.90
2022-10-03T18:34:44.221Z,0.80
2022-10-03T18:37:39.402Z,0.90
2022-10-03T18:40:17.524Z,0.60
2022-10-03T18:42:50.194Z,1.08
2022-10-03T18:45:45.459Z,0.60
2022-10-03T18:48:18.357Z,0.70
2022-10-03T18:51:02.600Z,0.98
2022-10-03T18:53:37.128Z,0.80
2022-10-03T18:56:09.882Z,0.60
2022-10-03T18:58:41.154Z,0.90
2022-10-03T19:01:25.540Z,0.60
2022-10-03T19:04:00.377Z,0.73
2022-10-03T19:06:30.326Z,1.30
2022-10-03T19:09:02.000Z,0.80
2022-10-03T19:11:39.574Z,0.80
2022-10-03T19:14:26.220Z,0.73
2022-10-03T19:17:05.622Z,0.50
2022-10-03T19:19:47.044Z,0.50
2022-10-03T19:22:17.097Z,0.50
2022-10-03T19:24:59.137Z,0.65
2022-10-03T19:27:40.577Z,1.10
2022-10-03T19:30:08.582Z,0.50
2022-10-03T19:32:41.087Z,0.75
2022-10-03T19:35:12.671Z,0.50
2022-10-03T19:37:46.080Z,0.50
2022-10-03T19:40:31.683Z,0.50
2022-10-03T19:43:30.194Z,0.60
2022-10-03T19:46:02.705Z,0.40
2022-10-03T19:48:34.489Z,0.77
2022-10-03T19:51:23.840Z,0.68
2022-10-03T19:53:53.671Z,0.97
2022-10-03T19:56:23.487Z,0.47
2022-10-03T19:59:19.376Z,0.52
2022-10-03T20:01:49.099Z,1.10
2022-10-03T20:04:31.905Z,0.60
2022-10-03T20:06:59.274Z,0.70
2022-10-03T20:09:27.422Z,0.57
2022-10-03T20:12:03.694Z,0.50
2022-10-03T20:14:40.288Z,1.23
2022-10-03T20:17:21.483Z,0.65
2022-10-03T20:20:04.111Z,0.47
2022-10-03T20:22:33.503Z,0.50
2022-10-03T20:25:01.027Z,0.50
2022-10-03T20:27:30.244Z,0.60
2022-10-03T20:30:35.600Z,0.50
2022-10-03T20:33:03.275Z,0.60
2022-10-03T20:35:41.412Z,0.68
2022-10-03T20:38:14.976Z,0.88
2022-10-03T20:40:51.859Z,0.57
2022-10-03T20:43:30.207Z,0.68
2022-10-03T20:46:10.789Z,0.60
2022-10-03T20:48:43.031Z,0.55
2022-10-03T20:51:22.798Z,0.60
2022-10-03T20:53:54.576Z,0.63
2022-10-03T20:56:29.615Z,0.80
2022-10-03T20:58:58.047Z,0.50
2022-10-03T21:01:27.184Z,0.68
2022-10-03T21:04:16.924Z,0.50
2022-10-03T21:07:05.467Z,0.55
2022-10-03T21:09:46.193Z,0.60
2022-10-03T21:12:18.955Z,0.53
2022-10-03T21:14:50.970Z,0.60
2022-10-03T21:17:19.513Z,0.57
2022-10-03T21:19:51.712Z,0.75
2022-10-03T21:22:23.763Z,0.60
2022-10-03T21:24:54.092Z,0.53
2022-10-03T21:27:21.936Z,0.40
2022-10-03T21:30:04.531Z,0.50
2022-10-03T21:32:51.704Z,0.50
2022-10-03T21:35:29.827Z,0.50
2022-10-03T21:38:05.279Z,0.77
2022-10-03T21:40:58.716Z,0.70
2022-10-03T21:43:43.900Z,0.60
2022-10-03T21:47:01.458Z,0.52
2022-10-03T21:49:33.788Z,0.90
2022-10-03T21:52:17.575Z,0.53
2022-10-03T21:55:16.584Z,0.55
2022-10-03T21:58:04.480Z,0.60
2022-10-03T22:01:06.457Z,0.57
2022-10-03T22:04:07.992Z,0.60
2022-10-03T22:06:45.168Z,1.10
2022-10-03T22:09:14.293Z,0.45
2022-10-03T22:12:00.368Z,0.60
2022-10-03T22:14:58.135Z,0.40
2022-10-03T22:17:33.305Z,0.60
2022-10-03T22:20:14.149Z,0.53
2022-10-03T22:23:04.671Z,0.50
2022-10-03T22:25:55.078Z,0.50
2022-10-03T22:28:47.721Z,0.40
2022-10-03T22:31:22.916Z,0.50
2022-10-03T22:34:06.387Z,0.77
2022-10-03T22:36:37.412Z,0.50
2022-10-03T22:39:13.326Z,0.50
2022-10-03T22:41:42.897Z,0.63
2022-10-03T22:44:12.395Z,0.90
2022-10-03T22:46:44.715Z,0.80
2022-10-03T22:49:16.472Z,0.50
2022-10-03T22:51:44.591Z,0.40
2022-10-03T22:54:15.707Z,0.60
2022-10-03T22:56:45.366Z,1.00
2022-10-03T22:59:22.131Z,0.50
2022-10-03T23:01:51.979Z,0.50
2022-10-03T23:04:33.506Z,0.50
2022-10-03T23:07:05.629Z,0.50
2022-10-03T23:09:58.428Z,0.50
2022-10-03T23:12:29.305Z,0.47
2022-10-03T23:14:59.128Z,0.50
2022-10-03T23:17:46.469Z,0.80
2022-10-03T23:20:42.557Z,0.30
2022-10-03T23:23:19.087Z,0.60
2022-10-03T23:26:08.456Z,0.40
2022-10-03T23:28:57.699Z,0.50
2022-10-03T23:31:57.579Z,0.77
2022-10-03T23:34:32.717Z,0.40
2022-10-03T23:37:01.616Z,0.40
2022-10-03T23:39:34.606Z,0.50
2022-10-03T23:42:10.195Z,0.73
2022-10-03T23:44:49.275Z,0.43
2022-10-03T23:47:20.525Z,0.55
2022-10-03T23:49:50.339Z,0.50
2022-10-03T23:52:25.527Z,0.40
2022-10-03T23:54:56.083Z,0.68
2022-10-03T23:57:29.759Z,0.52
2022-10-03T23:59:56.303Z,0.70
